sensor_id;sensor_type;location;lat;lon;timestamp;temperature;humidity
13268;DHT22;6702;47.068;15.458;2023-04-15T00:01:07;8.30;99.90
13268;DHT22;6702;47.068;15.458;2023-04-15T00:04:10;8.30;99.90
13268;DHT22;6702;47.068;15.458;2023-04-15T00:07:14;8.10;99.90
13268;DHT22;6702;47.068;15.458;2023-04-15T00:10:18;8.10;99.90
13268;DHT22;6702;47.068;15.458;2023-04-15T00:13:21;8.10;99.90
13268;DHT22;6702;47.068;15.458;2023-04-15T00:16:24;8.20;99.90
13268;DHT22;6702;47.068;15.458;2023-04-15T00:19:28;8.20;99.90
13268;DHT22;6702;47.068;15.458;2023-04-15T00:22:31;8.20;99.90
13268;DHT22;6702;47.068;15.458;2023-04-15T00:25:35;8.20;99.90
13268;DHT22;6702;47.068;15.458;2023-04-15T00:28:39;8.20;99.90
13268;DHT22;6702;47.068;15.458;2023-04-15T00:31:42;8.30;99.90
13268;DHT22;6702;47.068;15.458;2023-04-15T00:34:45;8.20;99.90
13268;DHT22;6702;47.068;15.458;2023-04-15T00:37:48;8.30;99.90
13268;DHT22;6702;47.068;15.458;2023-04-15T00:40:53;8.30;99.90
13268;DHT22;6702;47.068;15.458;2023-04-15T00:43:57;8.30;99.90
13268;DHT22;6702;47.068;15.458;2023-04-15T00:47:01;8.30;99.90
13268;DHT22;6702;47.068;15.458;2023-04-15T00:50:08;8.30;99.90
13268;DHT22;6702;47.068;15.458;2023-04-15T00:53:11;8.30;99.90
13268;DHT22;6702;47.068;15.458;2023-04-15T00:56:16;8.30;99.90
13268;DHT22;6702;47.068;15.458;2023-04-15T00:59:19;8.30;99.90
13268;DHT22;6702;47.068;15.458;2023-04-15T01:02:23;8.40;99.90
13268;DHT22;6702;47.068;15.458;2023-04-15T01:05:27;8.40;99.90
13268;DHT22;6702;47.068;15.458;2023-04-15T01:08:30;8.40;99.90
13268;DHT22;6702;47.068;15.458;2023-04-15T01:11:35;8.50;99.90
13268;DHT22;6702;47.068;15.458;2023-04-15T01:14:38;8.50;99.90
13268;DHT22;6702;47.068;15.458;2023-04-15T01:17:41;8.60;99.90
13268;DHT22;6702;47.068;15.458;2023-04-15T01:20:44;8.60;99.90
13268;DHT22;6702;47.068;15.458;2023-04-15T01:23:48;8.60;99.90
13268;DHT22;6702;47.068;15.458;2023-04-15T01:26:54;8.60;99.90
13268;DHT22;6702;47.068;15.458;2023-04-15T01:29:57;8.60;99.90
13268;DHT22;6702;47.068;15.458;2023-04-15T01:33:00;8.60;99.90
13268;DHT22;6702;47.068;15.458;2023-04-15T01:36:04;8.60;99.90
13268;DHT22;6702;47.068;15.458;2023-04-15T01:39:09;8.60;99.90
13268;DHT22;6702;47.068;15.458;2023-04-15T01:42:13;8.50;99.90
13268;DHT22;6702;47.068;15.458;2023-04-15T01:45:17;8.50;99.90
13268;DHT22;6702;47.068;15.458;2023-04-15T01:48:20;8.50;99.90
13268;DHT22;6702;47.068;15.458;2023-04-15T01:51:23;8.50;99.90
13268;DHT22;6702;47.068;15.458;2023-04-15T01:54:26;8.60;99.90
13268;DHT22;6702;47.068;15.458;2023-04-15T01:57:30;8.60;99.90
13268;DHT22;6702;47.068;15.458;2023-04-15T02:00:33;8.60;99.90
13268;DHT22;6702;47.068;15.458;2023-04-15T02:03:37;8.60;99.90
13268;DHT22;6702;47.068;15.458;2023-04-15T02:06:40;8.60;99.90
13268;DHT22;6702;47.068;15.458;2023-04-15T02:09:43;8.60;99.90
13268;DHT22;6702;47.068;15.458;2023-04-15T02:12:48;8.60;99.90
13268;DHT22;6702;47.068;15.458;2023-04-15T02:15:53;8.60;99.90
13268;DHT22;6702;47.068;15.458;2023-04-15T02:18:57;8.60;99.90
13268;DHT22;6702;47.068;15.458;2023-04-15T02:22:00;8.60;99.90
13268;DHT22;6702;47.068;15.458;2023-04-15T02:25:04;8.60;99.90
13268;DHT22;6702;47.068;15.458;2023-04-15T02:28:09;8.60;99.90
13268;DHT22;6702;47.068;15.458;2023-04-15T02:31:12;8.60;99.90
13268;DHT22;6702;47.068;15.458;2023-04-15T02:34:15;8.60;99.90
13268;DHT22;6702;47.068;15.458;2023-04-15T02:37:18;8.60;99.90
13268;DHT22;6702;47.068;15.458;2023-04-15T02:40:22;8.60;99.90
13268;DHT22;6702;47.068;15.458;2023-04-15T02:43:26;8.60;99.90
13268;DHT22;6702;47.068;15.458;2023-04-15T02:46:29;8.50;99.90
13268;DHT22;6702;47.068;15.458;2023-04-15T02:49:33;8.60;99.90
13268;DHT22;6702;47.068;15.458;2023-04-15T02:52:36;8.60;99.90
13268;DHT22;6702;47.068;15.458;2023-04-15T02:55:39;8.50;99.90
13268;DHT22;6702;47.068;15.458;2023-04-15T02:58:45;8.50;99.90
13268;DHT22;6702;47.068;15.458;2023-04-15T03:01:51;8.50;99.90
13268;DHT22;6702;47.068;15.458;2023-04-15T03:04:54;8.50;99.90
13268;DHT22;6702;47.068;15.458;2023-04-15T03:07:57;8.50;99.90
13268;DHT22;6702;47.068;15.458;2023-04-15T03:11:02;8.50;99.90
13268;DHT22;6702;47.068;15.458;2023-04-15T03:14:06;8.50;99.90
13268;DHT22;6702;47.068;15.458;2023-04-15T03:17:10;8.60;99.90
13268;DHT22;6702;47.068;15.458;2023-04-15T03:20:13;8.60;99.90
13268;DHT22;6702;47.068;15.458;2023-04-15T03:23:16;8.60;99.90
13268;DHT22;6702;47.068;15.458;2023-04-15T03:26:26;8.60;99.90
13268;DHT22;6702;47.068;15.458;2023-04-15T03:29:31;8.60;99.90
13268;DHT22;6702;47.068;15.458;2023-04-15T03:32:34;8.60;99.90
13268;DHT22;6702;47.068;15.458;2023-04-15T03:35:37;8.50;99.90
13268;DHT22;6702;47.068;15.458;2023-04-15T03:38:40;8.50;99.90
13268;DHT22;6702;47.068;15.458;2023-04-15T03:41:43;8.50;99.90
13268;DHT22;6702;47.068;15.458;2023-04-15T03:44:48;8.50;99.90
13268;DHT22;6702;47.068;15.458;2023-04-15T03:47:51;8.50;99.90
13268;DHT22;6702;47.068;15.458;2023-04-15T03:50:54;8.50;99.90
13268;DHT22;6702;47.068;15.458;2023-04-15T03:53:57;8.50;99.90
13268;DHT22;6702;47.068;15.458;2023-04-15T03:57:01;8.50;99.90
13268;DHT22;6702;47.068;15.458;2023-04-15T04:00:07;8.50;99.90
13268;DHT22;6702;47.068;15.458;2023-04-15T04:03:11;8.50;99.90
13268;DHT22;6702;47.068;15.458;2023-04-15T04:06:14;8.50;99.90
13268;DHT22;6702;47.068;15.458;2023-04-15T04:09:17;8.50;99.90
13268;DHT22;6702;47.068;15.458;2023-04-15T04:12:20;8.50;99.90
13268;DHT22;6702;47.068;15.458;2023-04-15T04:15:25;8.50;99.90
13268;DHT22;6702;47.068;15.458;2023-04-15T04:18:28;8.50;99.90
13268;DHT22;6702;47.068;15.458;2023-04-15T04:21:32;8.50;99.90
13268;DHT22;6702;47.068;15.458;2023-04-15T04:24:35;8.50;99.90
13268;DHT22;6702;47.068;15.458;2023-04-15T04:27:39;8.50;99.90
13268;DHT22;6702;47.068;15.458;2023-04-15T04:30:43;8.50;99.90
13268;DHT22;6702;47.068;15.458;2023-04-15T04:33:46;8.50;99.90
13268;DHT22;6702;47.068;15.458;2023-04-15T04:36:50;8.50;99.90
13268;DHT22;6702;47.068;15.458;2023-04-15T04:39:53;8.60;99.90
13268;DHT22;6702;47.068;15.458;2023-04-15T04:42:56;8.60;99.90
13268;DHT22;6702;47.068;15.458;2023-04-15T04:46:00;8.60;99.90
13268;DHT22;6702;47.068;15.458;2023-04-15T04:49:04;8.60;99.90
13268;DHT22;6702;47.068;15.458;2023-04-15T04:52:07;8.60;99.90
13268;DHT22;6702;47.068;15.458;2023-04-15T04:55:10;8.70;99.90
13268;DHT22;6702;47.068;15.458;2023-04-15T04:58:13;8.70;99.90
13268;DHT22;6702;47.068;15.458;2023-04-15T05:01:18;8.70;99.90
13268;DHT22;6702;47.068;15.458;2023-04-15T05:04:21;8.70;99.90
13268;DHT22;6702;47.068;15.458;2023-04-15T05:07:24;8.70;99.90
13268;DHT22;6702;47.068;15.458;2023-04-15T05:10:28;8.80;99.90
13268;DHT22;6702;47.068;15.458;2023-04-15T05:13:31;8.80;99.90
13268;DHT22;6702;47.068;15.458;2023-04-15T05:16:35;8.90;99.90
13268;DHT22;6702;47.068;15.458;2023-04-15T05:19:38;8.80;99.90
13268;DHT22;6702;47.068;15.458;2023-04-15T05:22:42;8.90;99.90
13268;DHT22;6702;47.068;15.458;2023-04-15T05:25:45;8.80;99.90
13268;DHT22;6702;47.068;15.458;2023-04-15T05:28:48;8.90;99.90
13268;DHT22;6702;47.068;15.458;2023-04-15T05:31:52;8.90;99.90
13268;DHT22;6702;47.068;15.458;2023-04-15T05:34:55;8.80;99.90
13268;DHT22;6702;47.068;15.458;2023-04-15T05:37:58;8.80;99.90
13268;DHT22;6702;47.068;15.458;2023-04-15T05:41:01;8.80;99.90
13268;DHT22;6702;47.068;15.458;2023-04-15T05:44:05;8.90;99.90
13268;DHT22;6702;47.068;15.458;2023-04-15T05:47:09;8.80;99.90
13268;DHT22;6702;47.068;15.458;2023-04-15T05:50:12;8.80;99.90
13268;DHT22;6702;47.068;15.458;2023-04-15T05:53:15;8.80;99.90
13268;DHT22;6702;47.068;15.458;2023-04-15T05:56:18;8.80;99.90
13268;DHT22;6702;47.068;15.458;2023-04-15T05:59:22;8.90;99.90
13268;DHT22;6702;47.068;15.458;2023-04-15T06:02:26;8.90;99.90
13268;DHT22;6702;47.068;15.458;2023-04-15T06:05:29;9.00;99.90
13268;DHT22;6702;47.068;15.458;2023-04-15T06:08:33;9.00;99.90
13268;DHT22;6702;47.068;15.458;2023-04-15T06:11:36;9.10;99.90
13268;DHT22;6702;47.068;15.458;2023-04-15T06:14:39;9.10;99.90
13268;DHT22;6702;47.068;15.458;2023-04-15T06:17:43;9.20;99.90
13268;DHT22;6702;47.068;15.458;2023-04-15T06:20:47;9.30;99.90
13268;DHT22;6702;47.068;15.458;2023-04-15T06:23:50;9.40;99.90
13268;DHT22;6702;47.068;15.458;2023-04-15T06:26:53;9.40;99.90
13268;DHT22;6702;47.068;15.458;2023-04-15T06:29:56;9.40;99.90
13268;DHT22;6702;47.068;15.458;2023-04-15T06:33:01;9.40;99.90
13268;DHT22;6702;47.068;15.458;2023-04-15T06:36:06;9.50;99.90
13268;DHT22;6702;47.068;15.458;2023-04-15T06:39:09;9.50;99.90
13268;DHT22;6702;47.068;15.458;2023-04-15T06:42:13;9.60;99.90
13268;DHT22;6702;47.068;15.458;2023-04-15T06:45:16;9.70;99.90
13268;DHT22;6702;47.068;15.458;2023-04-15T06:48:21;9.80;99.90
13268;DHT22;6702;47.068;15.458;2023-04-15T06:51:24;9.80;99.90
13268;DHT22;6702;47.068;15.458;2023-04-15T06:54:27;9.80;99.90
13268;DHT22;6702;47.068;15.458;2023-04-15T06:57:31;9.80;99.90
13268;DHT22;6702;47.068;15.458;2023-04-15T07:00:35;9.90;99.90
13268;DHT22;6702;47.068;15.458;2023-04-15T07:03:41;9.90;99.90
13268;DHT22;6702;47.068;15.458;2023-04-15T07:06:44;10.00;99.90
13268;DHT22;6702;47.068;15.458;2023-04-15T07:09:47;10.00;99.90
13268;DHT22;6702;47.068;15.458;2023-04-15T07:12:50;10.00;99.90
13268;DHT22;6702;47.068;15.458;2023-04-15T07:15:54;10.00;99.90
13268;DHT22;6702;47.068;15.458;2023-04-15T07:18:59;10.00;99.90
13268;DHT22;6702;47.068;15.458;2023-04-15T07:22:02;10.00;99.90
13268;DHT22;6702;47.068;15.458;2023-04-15T07:25:06;10.00;99.90
13268;DHT22;6702;47.068;15.458;2023-04-15T07:28:10;10.00;99.90
13268;DHT22;6702;47.068;15.458;2023-04-15T07:31:13;10.00;99.90
13268;DHT22;6702;47.068;15.458;2023-04-15T07:34:18;10.00;99.90
13268;DHT22;6702;47.068;15.458;2023-04-15T07:37:22;10.00;99.90
13268;DHT22;6702;47.068;15.458;2023-04-15T07:40:25;10.10;99.90
13268;DHT22;6702;47.068;15.458;2023-04-15T07:43:29;10.00;99.90
13268;DHT22;6702;47.068;15.458;2023-04-15T07:46:32;10.00;99.90
13268;DHT22;6702;47.068;15.458;2023-04-15T07:49:36;10.00;99.90
13268;DHT22;6702;47.068;15.458;2023-04-15T07:52:39;10.00;99.90
13268;DHT22;6702;47.068;15.458;2023-04-15T07:55:43;10.10;99.90
13268;DHT22;6702;47.068;15.458;2023-04-15T07:58:46;10.00;99.90
13268;DHT22;6702;47.068;15.458;2023-04-15T08:01:49;9.70;99.90
13268;DHT22;6702;47.068;15.458;2023-04-15T08:04:53;9.70;99.90
13268;DHT22;6702;47.068;15.458;2023-04-15T08:07:57;9.80;99.90
13268;DHT22;6702;47.068;15.458;2023-04-15T08:11:00;9.90;99.90
13268;DHT22;6702;47.068;15.458;2023-04-15T08:14:03;10.20;99.90
13268;DHT22;6702;47.068;15.458;2023-04-15T08:17:06;10.30;99.90
13268;DHT22;6702;47.068;15.458;2023-04-15T08:20:11;10.50;99.90
13268;DHT22;6702;47.068;15.458;2023-04-15T08:23:15;10.80;99.90
13268;DHT22;6702;47.068;15.458;2023-04-15T08:26:19;11.00;99.90
13268;DHT22;6702;47.068;15.458;2023-04-15T08:29:22;11.00;99.90
13268;DHT22;6702;47.068;15.458;2023-04-15T08:32:26;11.10;99.90
13268;DHT22;6702;47.068;15.458;2023-04-15T08:35:30;11.20;99.90
13268;DHT22;6702;47.068;15.458;2023-04-15T08:38:36;11.20;99.90
13268;DHT22;6702;47.068;15.458;2023-04-15T08:41:42;11.30;99.90
13268;DHT22;6702;47.068;15.458;2023-04-15T08:44:48;11.40;99.90
13268;DHT22;6702;47.068;15.458;2023-04-15T08:47:55;11.40;99.90
13268;DHT22;6702;47.068;15.458;2023-04-15T08:51:00;11.50;99.90
13268;DHT22;6702;47.068;15.458;2023-04-15T08:54:04;11.70;99.90
13268;DHT22;6702;47.068;15.458;2023-04-15T08:57:07;11.60;99.90
13268;DHT22;6702;47.068;15.458;2023-04-15T09:00:11;11.60;99.90
13268;DHT22;6702;47.068;15.458;2023-04-15T09:03:15;11.60;99.90
13268;DHT22;6702;47.068;15.458;2023-04-15T09:06:21;11.50;99.90
13268;DHT22;6702;47.068;15.458;2023-04-15T09:09:25;11.50;99.90
13268;DHT22;6702;47.068;15.458;2023-04-15T09:12:29;11.60;99.90
13268;DHT22;6702;47.068;15.458;2023-04-15T09:15:34;11.70;99.90
13268;DHT22;6702;47.068;15.458;2023-04-15T09:18:40;11.70;99.90
13268;DHT22;6702;47.068;15.458;2023-04-15T09:21:46;11.90;99.90
13268;DHT22;6702;47.068;15.458;2023-04-15T09:24:49;11.90;99.90
13268;DHT22;6702;47.068;15.458;2023-04-15T09:27:54;12.10;99.90
13268;DHT22;6702;47.068;15.458;2023-04-15T09:30:58;12.10;99.90
13268;DHT22;6702;47.068;15.458;2023-04-15T09:34:02;12.30;99.90
13268;DHT22;6702;47.068;15.458;2023-04-15T09:37:07;12.40;99.90
13268;DHT22;6702;47.068;15.458;2023-04-15T09:40:12;12.20;99.90
13268;DHT22;6702;47.068;15.458;2023-04-15T09:43:15;12.40;99.90
13268;DHT22;6702;47.068;15.458;2023-04-15T09:46:19;12.50;99.90
13268;DHT22;6702;47.068;15.458;2023-04-15T09:49:22;12.40;99.90
13268;DHT22;6702;47.068;15.458;2023-04-15T09:52:27;12.40;99.90
13268;DHT22;6702;47.068;15.458;2023-04-15T09:55:32;12.70;99.90
13268;DHT22;6702;47.068;15.458;2023-04-15T09:58:35;12.80;99.90
13268;DHT22;6702;47.068;15.458;2023-04-15T10:01:40;12.80;99.90
13268;DHT22;6702;47.068;15.458;2023-04-15T10:04:44;12.90;99.90
13268;DHT22;6702;47.068;15.458;2023-04-15T10:07:50;12.90;99.90
13268;DHT22;6702;47.068;15.458;2023-04-15T10:10:54;13.00;99.90
13268;DHT22;6702;47.068;15.458;2023-04-15T10:13:57;13.10;99.90
13268;DHT22;6702;47.068;15.458;2023-04-15T10:17:01;13.20;99.90
13268;DHT22;6702;47.068;15.458;2023-04-15T10:20:07;13.20;99.90
13268;DHT22;6702;47.068;15.458;2023-04-15T10:23:14;13.30;99.90
13268;DHT22;6702;47.068;15.458;2023-04-15T10:26:18;13.30;99.90
13268;DHT22;6702;47.068;15.458;2023-04-15T10:29:23;13.40;99.90
13268;DHT22;6702;47.068;15.458;2023-04-15T10:32:27;13.30;99.90
13268;DHT22;6702;47.068;15.458;2023-04-15T10:48:26;13.30;99.90
13268;DHT22;6702;47.068;15.458;2023-04-15T10:51:30;13.40;99.90
13268;DHT22;6702;47.068;15.458;2023-04-15T10:54:33;13.40;99.80
13268;DHT22;6702;47.068;15.458;2023-04-15T10:57:40;13.30;99.50
13268;DHT22;6702;47.068;15.458;2023-04-15T11:00:49;13.30;99.90
13268;DHT22;6702;47.068;15.458;2023-04-15T11:03:54;13.30;99.90
13268;DHT22;6702;47.068;15.458;2023-04-15T11:07:05;12.90;99.90
13268;DHT22;6702;47.068;15.458;2023-04-15T11:13:56;12.20;99.90
13268;DHT22;6702;47.068;15.458;2023-04-15T11:17:00;12.30;99.90
13268;DHT22;6702;47.068;15.458;2023-04-15T11:20:05;12.30;99.90
13268;DHT22;6702;47.068;15.458;2023-04-15T11:23:10;12.50;99.90
13268;DHT22;6702;47.068;15.458;2023-04-15T11:26:16;12.50;99.90
13268;DHT22;6702;47.068;15.458;2023-04-15T11:29:19;12.70;99.90
13268;DHT22;6702;47.068;15.458;2023-04-15T11:32:22;12.70;99.90
13268;DHT22;6702;47.068;15.458;2023-04-15T11:35:27;12.90;99.90
13268;DHT22;6702;47.068;15.458;2023-04-15T11:38:31;12.90;99.90
13268;DHT22;6702;47.068;15.458;2023-04-15T11:41:35;13.00;99.90
13268;DHT22;6702;47.068;15.458;2023-04-15T11:44:39;13.10;99.90
13268;DHT22;6702;47.068;15.458;2023-04-15T11:47:42;12.90;99.50
13268;DHT22;6702;47.068;15.458;2023-04-15T11:50:52;12.90;99.50
13268;DHT22;6702;47.068;15.458;2023-04-15T11:53:55;12.90;99.40
13268;DHT22;6702;47.068;15.458;2023-04-15T11:56:59;13.00;99.60
13268;DHT22;6702;47.068;15.458;2023-04-15T12:00:04;12.90;99.20
13268;DHT22;6702;47.068;15.458;2023-04-15T12:03:11;13.00;99.40
13268;DHT22;6702;47.068;15.458;2023-04-15T12:06:18;13.10;99.60
13268;DHT22;6702;47.068;15.458;2023-04-15T12:09:21;12.90;99.30
13268;DHT22;6702;47.068;15.458;2023-04-15T12:12:26;13.00;99.60
13268;DHT22;6702;47.068;15.458;2023-04-15T12:15:29;13.00;99.80
13268;DHT22;6702;47.068;15.458;2023-04-15T12:18:37;13.10;99.60
13268;DHT22;6702;47.068;15.458;2023-04-15T12:21:43;13.10;99.00
13268;DHT22;6702;47.068;15.458;2023-04-15T12:24:53;13.20;99.10
13268;DHT22;6702;47.068;15.458;2023-04-15T12:27:58;13.40;99.10
13268;DHT22;6702;47.068;15.458;2023-04-15T12:31:06;13.30;98.20
13268;DHT22;6702;47.068;15.458;2023-04-15T12:34:10;13.20;98.20
13268;DHT22;6702;47.068;15.458;2023-04-15T12:37:14;13.30;98.60
13268;DHT22;6702;47.068;15.458;2023-04-15T12:40:19;13.50;98.60
13268;DHT22;6702;47.068;15.458;2023-04-15T12:43:22;13.60;98.30
13268;DHT22;6702;47.068;15.458;2023-04-15T12:46:25;13.80;98.30
13268;DHT22;6702;47.068;15.458;2023-04-15T12:49:30;13.80;97.60
13268;DHT22;6702;47.068;15.458;2023-04-15T12:52:35;13.90;97.40
13268;DHT22;6702;47.068;15.458;2023-04-15T12:55:38;14.00;97.40
13268;DHT22;6702;47.068;15.458;2023-04-15T12:58:41;14.10;96.80
13268;DHT22;6702;47.068;15.458;2023-04-15T13:01:44;14.10;96.70
13268;DHT22;6702;47.068;15.458;2023-04-15T13:04:48;14.20;97.00
13268;DHT22;6702;47.068;15.458;2023-04-15T13:07:53;14.40;96.90
13268;DHT22;6702;47.068;15.458;2023-04-15T13:10:56;14.30;95.80
13268;DHT22;6702;47.068;15.458;2023-04-15T13:14:00;14.30;95.10
13268;DHT22;6702;47.068;15.458;2023-04-15T13:17:04;14.20;95.30
13268;DHT22;6702;47.068;15.458;2023-04-15T13:20:10;14.20;95.60
13268;DHT22;6702;47.068;15.458;2023-04-15T13:23:16;14.20;95.60
13268;DHT22;6702;47.068;15.458;2023-04-15T13:26:19;14.20;95.40
13268;DHT22;6702;47.068;15.458;2023-04-15T13:29:22;14.30;95.20
13268;DHT22;6702;47.068;15.458;2023-04-15T13:32:25;14.20;95.80
13268;DHT22;6702;47.068;15.458;2023-04-15T13:35:29;14.10;96.40
13268;DHT22;6702;47.068;15.458;2023-04-15T13:38:33;14.00;96.90
13268;DHT22;6702;47.068;15.458;2023-04-15T13:41:37;13.90;97.40
13268;DHT22;6702;47.068;15.458;2023-04-15T13:44:40;13.70;98.40
13268;DHT22;6702;47.068;15.458;2023-04-15T13:47:43;13.40;99.30
13268;DHT22;6702;47.068;15.458;2023-04-15T13:50:46;13.00;99.90
13268;DHT22;6702;47.068;15.458;2023-04-15T13:53:51;12.70;99.90
13268;DHT22;6702;47.068;15.458;2023-04-15T13:56:54;12.40;99.90
13268;DHT22;6702;47.068;15.458;2023-04-15T13:59:58;12.20;99.90
13268;DHT22;6702;47.068;15.458;2023-04-15T14:03:02;12.00;99.90
13268;DHT22;6702;47.068;15.458;2023-04-15T14:06:06;11.90;99.90
13268;DHT22;6702;47.068;15.458;2023-04-15T14:09:10;12.00;99.90
13268;DHT22;6702;47.068;15.458;2023-04-15T14:12:13;11.90;99.90
13268;DHT22;6702;47.068;15.458;2023-04-15T14:15:17;12.10;99.90
13268;DHT22;6702;47.068;15.458;2023-04-15T14:18:20;12.20;99.90
13268;DHT22;6702;47.068;15.458;2023-04-15T14:21:24;12.40;99.90
13268;DHT22;6702;47.068;15.458;2023-04-15T14:24:30;12.60;99.90
13268;DHT22;6702;47.068;15.458;2023-04-15T14:27:33;12.80;99.90
13268;DHT22;6702;47.068;15.458;2023-04-15T14:30:36;12.90;99.90
13268;DHT22;6702;47.068;15.458;2023-04-15T14:33:39;13.00;99.90
13268;DHT22;6702;47.068;15.458;2023-04-15T14:36:43;13.10;99.90
13268;DHT22;6702;47.068;15.458;2023-04-15T14:39:47;13.20;99.90
13268;DHT22;6702;47.068;15.458;2023-04-15T14:42:51;13.20;99.90
13268;DHT22;6702;47.068;15.458;2023-04-15T14:45:54;13.30;99.90
13268;DHT22;6702;47.068;15.458;2023-04-15T14:48:58;13.30;99.90
13268;DHT22;6702;47.068;15.458;2023-04-15T14:52:01;13.40;99.90
13268;DHT22;6702;47.068;15.458;2023-04-15T14:55:08;13.40;99.90
13268;DHT22;6702;47.068;15.458;2023-04-15T14:58:11;13.40;99.90
13268;DHT22;6702;47.068;15.458;2023-04-15T15:01:15;13.40;99.90
13268;DHT22;6702;47.068;15.458;2023-04-15T15:04:18;13.40;99.90
13268;DHT22;6702;47.068;15.458;2023-04-15T15:07:22;13.50;99.90
13268;DHT22;6702;47.068;15.458;2023-04-15T15:10:26;13.50;99.90
13268;DHT22;6702;47.068;15.458;2023-04-15T15:13:45;13.60;99.90
13268;DHT22;6702;47.068;15.458;2023-04-15T15:16:48;13.60;99.90
13268;DHT22;6702;47.068;15.458;2023-04-15T15:19:52;13.60;99.90
13268;DHT22;6702;47.068;15.458;2023-04-15T15:22:55;13.60;99.90
13268;DHT22;6702;47.068;15.458;2023-04-15T15:26:00;13.60;99.90
13268;DHT22;6702;47.068;15.458;2023-04-15T15:29:03;13.50;99.90
13268;DHT22;6702;47.068;15.458;2023-04-15T15:32:07;13.50;99.90
13268;DHT22;6702;47.068;15.458;2023-04-15T15:35:10;13.40;99.90
13268;DHT22;6702;47.068;15.458;2023-04-15T15:38:13;13.40;99.90
13268;DHT22;6702;47.068;15.458;2023-04-15T15:41:18;13.30;99.90
13268;DHT22;6702;47.068;15.458;2023-04-15T15:44:22;13.30;99.90
13268;DHT22;6702;47.068;15.458;2023-04-15T15:47:25;13.30;99.90
13268;DHT22;6702;47.068;15.458;2023-04-15T15:50:29;13.20;99.90
13268;DHT22;6702;47.068;15.458;2023-04-15T15:53:32;13.20;99.90
13268;DHT22;6702;47.068;15.458;2023-04-15T15:56:37;13.20;99.90
13268;DHT22;6702;47.068;15.458;2023-04-15T15:59:40;13.10;99.90
13268;DHT22;6702;47.068;15.458;2023-04-15T16:02:44;13.00;99.90
13268;DHT22;6702;47.068;15.458;2023-04-15T16:05:50;13.00;99.90
13268;DHT22;6702;47.068;15.458;2023-04-15T16:08:53;12.90;99.90
13268;DHT22;6702;47.068;15.458;2023-04-15T16:11:58;12.80;99.90
13268;DHT22;6702;47.068;15.458;2023-04-15T16:15:02;12.70;99.90
13268;DHT22;6702;47.068;15.458;2023-04-15T16:18:06;12.60;99.90
13268;DHT22;6702;47.068;15.458;2023-04-15T16:21:09;12.60;99.90
13268;DHT22;6702;47.068;15.458;2023-04-15T16:24:12;12.40;99.90
13268;DHT22;6702;47.068;15.458;2023-04-15T16:27:17;12.40;99.90
13268;DHT22;6702;47.068;15.458;2023-04-15T16:30:20;12.40;99.90
13268;DHT22;6702;47.068;15.458;2023-04-15T16:33:25;12.30;99.90
13268;DHT22;6702;47.068;15.458;2023-04-15T16:36:28;12.30;99.90
13268;DHT22;6702;47.068;15.458;2023-04-15T16:39:32;12.20;99.90
13268;DHT22;6702;47.068;15.458;2023-04-15T16:42:37;12.10;99.90
13268;DHT22;6702;47.068;15.458;2023-04-15T16:45:40;12.10;99.90
13268;DHT22;6702;47.068;15.458;2023-04-15T16:48:45;12.10;99.90
13268;DHT22;6702;47.068;15.458;2023-04-15T16:51:48;12.00;99.90
13268;DHT22;6702;47.068;15.458;2023-04-15T16:54:55;12.00;99.90
13268;DHT22;6702;47.068;15.458;2023-04-15T16:58:00;11.90;99.90
13268;DHT22;6702;47.068;15.458;2023-04-15T17:01:07;11.90;99.90
13268;DHT22;6702;47.068;15.458;2023-04-15T17:04:11;11.80;99.90
13268;DHT22;6702;47.068;15.458;2023-04-15T17:07:15;11.80;99.90
13268;DHT22;6702;47.068;15.458;2023-04-15T17:10:18;11.70;99.90
13268;DHT22;6702;47.068;15.458;2023-04-15T17:13:22;11.70;99.90
13268;DHT22;6702;47.068;15.458;2023-04-15T17:16:27;11.70;99.90
13268;DHT22;6702;47.068;15.458;2023-04-15T17:19:30;11.60;99.90
13268;DHT22;6702;47.068;15.458;2023-04-15T17:22:33;11.60;99.90
13268;DHT22;6702;47.068;15.458;2023-04-15T17:25:37;11.50;99.90
13268;DHT22;6702;47.068;15.458;2023-04-15T17:28:41;11.30;99.90
13268;DHT22;6702;47.068;15.458;2023-04-15T17:31:45;11.30;99.90
13268;DHT22;6702;47.068;15.458;2023-04-15T17:34:49;11.10;99.90
13268;DHT22;6702;47.068;15.458;2023-04-15T17:37:53;11.00;99.90
13268;DHT22;6702;47.068;15.458;2023-04-15T17:40:56;11.10;99.90
13268;DHT22;6702;47.068;15.458;2023-04-15T17:44:01;11.10;99.90
13268;DHT22;6702;47.068;15.458;2023-04-15T17:47:06;11.00;99.90
13268;DHT22;6702;47.068;15.458;2023-04-15T17:50:10;11.00;99.90
13268;DHT22;6702;47.068;15.458;2023-04-15T17:53:14;10.90;99.90
13268;DHT22;6702;47.068;15.458;2023-04-15T17:56:17;11.00;99.90
13268;DHT22;6702;47.068;15.458;2023-04-15T17:59:26;11.00;99.90
13268;DHT22;6702;47.068;15.458;2023-04-15T18:02:29;11.00;99.90
13268;DHT22;6702;47.068;15.458;2023-04-15T18:05:37;11.00;99.90
13268;DHT22;6702;47.068;15.458;2023-04-15T18:08:43;11.00;99.90
13268;DHT22;6702;47.068;15.458;2023-04-15T18:11:47;10.90;99.90
13268;DHT22;6702;47.068;15.458;2023-04-15T18:14:52;10.90;99.90
13268;DHT22;6702;47.068;15.458;2023-04-15T18:17:56;11.00;99.90
13268;DHT22;6702;47.068;15.458;2023-04-15T18:21:02;11.00;99.90
13268;DHT22;6702;47.068;15.458;2023-04-15T18:24:06;10.90;99.90
13268;DHT22;6702;47.068;15.458;2023-04-15T18:27:10;11.00;99.90
13268;DHT22;6702;47.068;15.458;2023-04-15T18:30:15;10.90;99.90
13268;DHT22;6702;47.068;15.458;2023-04-15T18:33:19;10.90;99.90
13268;DHT22;6702;47.068;15.458;2023-04-15T18:36:22;11.00;99.90
13268;DHT22;6702;47.068;15.458;2023-04-15T18:39:26;10.90;99.90
13268;DHT22;6702;47.068;15.458;2023-04-15T18:42:31;10.90;99.90
13268;DHT22;6702;47.068;15.458;2023-04-15T18:45:36;10.90;99.90
13268;DHT22;6702;47.068;15.458;2023-04-15T18:48:40;10.90;99.90
13268;DHT22;6702;47.068;15.458;2023-04-15T18:51:45;10.90;99.90
13268;DHT22;6702;47.068;15.458;2023-04-15T18:54:49;10.80;99.90
13268;DHT22;6702;47.068;15.458;2023-04-15T18:57:52;10.90;99.90
13268;DHT22;6702;47.068;15.458;2023-04-15T19:00:58;10.90;99.90
13268;DHT22;6702;47.068;15.458;2023-04-15T19:04:02;10.90;99.90
13268;DHT22;6702;47.068;15.458;2023-04-15T19:07:06;10.80;99.90
13268;DHT22;6702;47.068;15.458;2023-04-15T19:10:10;10.80;99.90
13268;DHT22;6702;47.068;15.458;2023-04-15T19:13:15;10.70;99.90
13268;DHT22;6702;47.068;15.458;2023-04-15T19:16:21;10.70;99.90
13268;DHT22;6702;47.068;15.458;2023-04-15T19:19:25;10.70;99.90
13268;DHT22;6702;47.068;15.458;2023-04-15T19:22:29;10.70;99.90
13268;DHT22;6702;47.068;15.458;2023-04-15T19:25:37;10.60;99.90
13268;DHT22;6702;47.068;15.458;2023-04-15T19:28:41;10.60;99.90
13268;DHT22;6702;47.068;15.458;2023-04-15T19:31:47;10.50;99.90
13268;DHT22;6702;47.068;15.458;2023-04-15T19:34:52;10.50;99.90
13268;DHT22;6702;47.068;15.458;2023-04-15T19:37:56;10.40;99.90
13268;DHT22;6702;47.068;15.458;2023-04-15T19:41:01;10.30;99.90
13268;DHT22;6702;47.068;15.458;2023-04-15T19:44:04;10.30;99.90
13268;DHT22;6702;47.068;15.458;2023-04-15T19:47:11;10.20;99.90